Погода Матозиньюсна 2 недели

Минас-Жерайс, Бразилия

29 мая-10 июня
  • 29мая
    Сегодня
    +17°
    +28°
    Ясно и безоблачно
    ВремяПогодаТемператураВлажностьДавлениеВетер, м/сВероятность осадков
    00:00Облачно с прояснениями+21°C77 %692 мм1.5 м/с5 %
    03:00Облачно с прояснениями+19°C82 %692 мм2.0 м/с5 %
    06:00Ясно и безоблачно+18°C89 %692 мм2.4 м/с5 %
    09:00Ясно и безоблачно+22°C65 %694 мм2.1 м/с5 %
    12:00Практически безоблачно+26°C50 %694 мм1.5 м/с16 %
    15:00Ясно и безоблачно+28°C43 %692 мм1.9 м/с7 %
    18:00Ясно и безоблачно+24°C60 %692 мм1.1 м/с5 %
    21:00Ясно и безоблачно+22°C66 %693 мм2.1 м/с4 %
  • 30мая
    Четверг
    +15°
    +27°
    Ясно и безоблачно
    ВремяПогодаТемператураВлажностьДавлениеВетер, м/сВероятность осадков
    00:00Ясно и безоблачно+20°C71 %693 мм2.3 м/с3 %
    03:00Ясно и безоблачно+18°C77 %692 мм2.6 м/с4 %
    06:00Ясно и безоблачно+17°C91 %692 мм3.2 м/с4 %
    09:00Ясно и безоблачно+21°C74 %694 мм2.9 м/с8 %
    12:00Ясно и безоблачно+25°C51 %694 мм0.4 м/с32 %
    15:00Ясно и безоблачно+27°C39 %693 мм0.8 м/с21 %
    18:00Практически безоблачно+23°C53 %693 мм2.2 м/с20 %
    21:00Ясно и безоблачно+20°C72 %694 мм3.0 м/с21 %
  • 31мая
    Пятница
    +15°
    +27°
    Ясно и безоблачно
    ВремяПогодаТемператураВлажностьДавлениеВетер, м/сВероятность осадков
    00:00Ясно и безоблачно+18°C81 %694 мм3.1 м/с10 %
    03:00Ясно и безоблачно+17°C84 %693 мм3.2 м/с5 %
    06:00Ясно и безоблачно+16°C86 %694 мм3.3 м/с5 %
    09:00Ясно и безоблачно+19°C66 %696 мм3.6 м/с3 %
    12:00Ясно и безоблачно+25°C50 %695 мм3.2 м/с3 %
    15:00Ясно и безоблачно+26°C43 %694 мм3.7 м/с5 %
    18:00Ясно и безоблачно+22°C57 %694 мм3.7 м/с5 %
    21:00Ясно и безоблачно+19°C66 %695 мм3.5 м/с4 %
  • 01июня
    Суббота
    +14°
    +26°
    Ясно и безоблачно
    ВремяПогодаТемператураВлажностьДавлениеВетер, м/сВероятность осадков
    00:00Ясно и безоблачно+17°C72 %695 мм3.5 м/с5 %
    03:00Ясно и безоблачно+16°C75 %695 мм3.5 м/с5 %
    06:00Ясно и безоблачно+15°C80 %695 мм3.2 м/с5 %
    09:00Ясно и безоблачно+19°C61 %697 мм3.3 м/с5 %
    12:00Ясно и безоблачно+24°C43 %696 мм3.6 м/с5 %
    15:00Ясно и безоблачно+25°C41 %695 мм4.4 м/с5 %
    18:00Ясно и безоблачно+22°C50 %695 мм2.8 м/с5 %
    21:00Ясно и безоблачно+19°C64 %696 мм2.1 м/с5 %
  • 02июня
    Воскресенье
    +16°
    +26°
    Практически безоблачно
    ВремяПогодаТемператураВлажностьДавлениеВетер, м/сВероятность осадков
    00:00Ясно и безоблачно+17°C72 %695 мм2.7 м/с5 %
    03:00Ясно и безоблачно+16°C82 %695 мм2.8 м/с5 %
    06:00Ясно и безоблачно+15°C91 %695 мм2.4 м/с5 %
    09:00Ясно и безоблачно+19°C64 %697 мм3.8 м/с5 %
    12:00Ясно и безоблачно+24°C48 %697 мм4.3 м/с4 %
    15:00Практически безоблачно+25°C42 %696 мм3.5 м/с6 %
    18:00Небольшая облачность+22°C48 %696 мм2.7 м/с10 %
    21:00Практически безоблачно+20°C61 %696 мм1.9 м/с11 %
Мы используем cookies
Соглашаюсь